Time;durP1;ratioP1;P1;durP2;ratioP2;P2;SDS_P1;SDS_P2;PMS_P1;PMS_P2;Temp;Humidity;BMP_temperature;BMP_pressure;BME280_temperature;BME280_humidity;BME280_pressure;Samples;Min_cycle;Max_cycle;Signal;HPM_P1;HPM_P2
2021/12/27 00:01:54;;;;;;;18.67;9.63;;;0.10;99.90;;;;;;5011085;28;20065;-67
2021/12/27 00:04:19;;;;;;;20.37;10.10;;;0.10;99.90;;;;;;4989773;28;20505;-67
2021/12/27 00:06:45;;;;;;;18.47;9.40;;;0.10;99.90;;;;;;5003294;28;20711;-67
2021/12/27 00:09:10;;;;;;;22.23;9.30;;;0.10;99.90;;;;;;5005967;28;20406;-67
2021/12/27 00:11:36;;;;;;;18.97;8.47;;;0.00;99.90;;;;;;4988731;28;20057;-67
2021/12/27 00:14:02;;;;;;;20.87;10.03;;;0.10;99.90;;;;;;4987200;28;20050;-68
2021/12/27 00:16:27;;;;;;;20.10;9.67;;;0.00;99.90;;;;;;5011563;28;20037;-67
2021/12/27 00:18:53;;;;;;;25.17;10.27;;;0.10;99.90;;;;;;5008789;28;20033;-67
2021/12/27 00:21:18;;;;;;;20.83;9.53;;;0.00;99.90;;;;;;5008324;28;20042;-67
2021/12/27 00:23:44;;;;;;;18.27;9.27;;;0.00;99.90;;;;;;5005087;28;20045;-68
2021/12/27 00:26:10;;;;;;;21.17;10.07;;;0.10;99.90;;;;;;4994723;28;20405;-67
2021/12/27 00:28:36;;;;;;;19.48;9.30;;;0.10;99.90;;;;;;5010631;28;20107;-67
2021/12/27 00:31:03;;;;;;;24.47;10.60;;;0.10;99.90;;;;;;4992068;28;20529;-68
2021/12/27 00:33:29;;;;;;;19.38;9.98;;;0.10;99.90;;;;;;4995013;28;20045;-68
2021/12/27 00:35:55;;;;;;;21.35;9.95;;;0.10;99.90;;;;;;5006544;28;20117;-68
2021/12/27 00:38:24;;;;;;;22.73;9.68;;;0.10;99.90;;;;;;5001440;28;20049;-68
2021/12/27 00:40:49;;;;;;;19.20;9.77;;;0.20;99.90;;;;;;4986892;28;20091;-68
2021/12/27 00:43:16;;;;;;;19.70;9.43;;;0.20;99.90;;;;;;4995893;28;20072;-73
2021/12/27 00:45:42;;;;;;;23.13;9.98;;;0.20;99.90;;;;;;4982896;28;20055;-67
2021/12/27 00:48:09;;;;;;;25.25;12.25;;;0.20;99.90;;;;;;4990803;28;20038;-68
2021/12/27 00:50:35;;;;;;;18.05;9.05;;;0.20;99.90;;;;;;4989554;28;20053;-68
2021/12/27 00:53:00;;;;;;;18.77;9.30;;;0.10;99.90;;;;;;4986694;28;20133;-67
2021/12/27 00:55:26;;;;;;;21.43;10.60;;;0.20;99.90;;;;;;4984357;28;20125;-68
2021/12/27 00:57:53;;;;;;;20.27;9.83;;;0.20;99.90;;;;;;4998178;28;20423;-67
2021/12/27 01:00:21;;;;;;;21.65;9.10;;;0.20;99.90;;;;;;5002850;28;20045;-68
2021/12/27 01:02:47;;;;;;;25.42;11.68;;;0.20;99.90;;;;;;5007865;28;20041;-67
2021/12/27 01:05:14;;;;;;;26.77;10.63;;;0.20;99.90;;;;;;4991040;28;20058;-68
2021/12/27 01:07:40;;;;;;;;;;;0.20;99.90;;;;;;4981807;28;20052;-68
2021/12/27 01:13:03;;;;;;;22.25;10.38;;;0.20;99.90;;;;;;4981712;28;20593;-68
2021/12/27 01:17:58;;;;;;;21.77;9.98;;;0.30;99.90;;;;;;5011292;28;20183;-69
2021/12/27 01:20:25;;;;;;;23.40;10.17;;;0.20;99.90;;;;;;4975581;28;20129;-68
2021/12/27 01:22:52;;;;;;;20.10;9.98;;;0.20;99.90;;;;;;4985796;28;20038;-68
2021/12/27 01:25:19;;;;;;;18.35;9.27;;;0.20;99.90;;;;;;5005332;28;20471;-69
2021/12/27 01:27:45;;;;;;;19.48;10.55;;;0.20;99.90;;;;;;4999873;28;20531;-69
2021/12/27 01:30:15;;;;;;;21.73;10.03;;;0.20;99.90;;;;;;5010299;28;20137;-68
2021/12/27 01:32:49;;;;;;;24.42;10.70;;;0.20;99.90;;;;;;4993036;28;20045;-69
2021/12/27 01:35:15;;;;;;;21.25;9.75;;;0.20;99.90;;;;;;4988826;28;20033;-67
2021/12/27 01:37:41;;;;;;;22.38;10.38;;;0.20;99.90;;;;;;4987800;28;20081;-67
2021/12/27 01:40:09;;;;;;;23.00;11.07;;;0.20;99.90;;;;;;4991414;28;20300;-67
2021/12/27 01:42:34;;;;;;;20.33;11.18;;;0.20;99.90;;;;;;4985728;28;20038;-67
2021/12/27 01:45:00;;;;;;;20.27;11.10;;;0.20;99.90;;;;;;4969454;28;20042;-67
2021/12/27 01:47:28;;;;;;;21.60;10.67;;;0.20;99.90;;;;;;4989545;28;20165;-67
2021/12/27 01:49:54;;;;;;;22.25;11.07;;;0.30;99.90;;;;;;4992405;28;20041;-67
2021/12/27 01:52:19;;;;;;;25.27;11.10;;;0.20;99.90;;;;;;4997245;28;20042;-67
2021/12/27 01:54:45;;;;;;;22.83;10.83;;;0.30;99.90;;;;;;4997256;28;20034;-67
2021/12/27 01:57:11;;;;;;;19.23;9.23;;;0.30;99.90;;;;;;4976048;28;20124;-67
2021/12/27 01:59:37;;;;;;;23.23;11.27;;;0.30;99.90;;;;;;5009079;28;20080;-67
2021/12/27 02:02:03;;;;;;;21.90;10.10;;;0.30;99.90;;;;;;5010996;28;20078;-67
2021/12/27 02:04:31;;;;;;;18.92;9.25;;;0.20;99.90;;;;;;4994303;28;20038;-67
2021/12/27 02:06:57;;;;;;;22.77;10.18;;;0.20;99.90;;;;;;5005110;28;20289;-68
2021/12/27 02:09:31;;;;;;;20.60;10.63;;;0.20;99.90;;;;;;4989151;28;20499;-68
2021/12/27 02:11:57;;;;;;;18.60;10.23;;;0.20;99.90;;;;;;4976570;28;20083;-68
2021/12/27 02:14:22;;;;;;;20.73;10.30;;;0.20;99.90;;;;;;5008677;28;20061;-68
2021/12/27 02:16:48;;;;;;;22.83;11.03;;;0.20;99.90;;;;;;4989804;28;20034;-68
2021/12/27 02:19:14;;;;;;;17.70;9.20;;;0.20;99.90;;;;;;5001413;28;20448;-68
2021/12/27 02:21:39;;;;;;;22.23;10.73;;;0.20;99.90;;;;;;5012839;28;20042;-68
2021/12/27 02:24:08;;;;;;;20.00;10.77;;;0.20;99.90;;;;;;5002625;28;20186;-68
2021/12/27 02:26:34;;;;;;;21.42;11.13;;;0.20;99.90;;;;;;4999146;28;20533;-68
2021/12/27 02:29:00;;;;;;;20.37;10.27;;;0.20;99.90;;;;;;5002690;28;20049;-68
2021/12/27 02:31:27;;;;;;;22.17;10.15;;;0.20;99.90;;;;;;4992130;28;20037;-68
2021/12/27 02:33:53;;;;;;;22.67;10.15;;;0.20;99.90;;;;;;5017840;28;20037;-68
2021/12/27 02:36:19;;;;;;;19.43;10.73;;;0.30;99.90;;;;;;4999827;28;20064;-68
2021/12/27 02:38:46;;;;;;;21.15;10.90;;;0.30;99.90;;;;;;5006558;28;20446;-68
2021/12/27 02:41:12;;;;;;;;;;;0.30;99.90;;;;;;5004687;28;20168;-68
2021/12/27 02:43:41;;;;;;;21.63;10.05;;;0.30;99.90;;;;;;4990794;28;20009;-68
2021/12/27 02:46:11;;;;;;;23.90;10.90;;;0.20;99.90;;;;;;4996019;28;20042;-68
2021/12/27 02:48:45;;;;;;;22.95;11.43;;;0.30;99.90;;;;;;4987822;28;20176;-68
2021/12/27 02:51:11;;;;;;;22.17;10.63;;;0.30;99.90;;;;;;4985573;28;20120;-68
2021/12/27 02:53:37;;;;;;;22.00;10.63;;;0.30;99.90;;;;;;5015287;28;20184;-68
2021/12/27 02:56:05;;;;;;;24.70;11.03;;;0.30;99.90;;;;;;5007333;28;20629;-68
2021/12/27 02:58:31;;;;;;;22.70;10.63;;;0.30;99.90;;;;;;4982330;28;20041;-68
2021/12/27 03:01:01;;;;;;;25.03;11.93;;;0.40;99.90;;;;;;5007250;28;20049;-68
2021/12/27 03:03:28;;;;;;;22.85;11.45;;;0.30;99.90;;;;;;4995518;28;20164;-68
2021/12/27 03:05:53;;;;;;;25.10;10.75;;;0.30;99.90;;;;;;4993601;28;20075;-68
2021/12/27 03:08:20;;;;;;;21.50;11.10;;;0.30;99.90;;;;;;4998902;28;20050;-68
2021/12/27 03:10:48;;;;;;;;;;;0.40;99.90;;;;;;5003298;28;20426;-68
2021/12/27 03:13:23;;;;;;;24.70;13.00;;;0.40;99.90;;;;;;5001851;28;19918;-68
2021/12/27 03:15:53;;;;;;;24.55;11.18;;;0.40;99.90;;;;;;5008876;28;20486;-68
2021/12/27 03:18:18;;;;;;;24.25;10.70;;;0.30;99.90;;;;;;5014847;28;20046;-69
2021/12/27 03:20:44;;;;;;;27.40;11.70;;;0.40;99.90;;;;;;4994178;28;20442;-68
2021/12/27 03:23:10;;;;;;;23.10;11.37;;;0.40;99.90;;;;;;4992148;28;20037;-68
2021/12/27 03:25:36;;;;;;;23.95;11.68;;;0.40;99.90;;;;;;5008961;28;20362;-68
2021/12/27 03:28:02;;;;;;;19.63;11.17;;;0.40;99.90;;;;;;5028175;23;20128;-86
2021/12/27 03:30:29;;;;;;;24.98;11.85;;;0.40;99.90;;;;;;5010534;28;20119;-86
2021/12/27 03:32:55;;;;;;;25.63;11.82;;;0.40;99.90;;;;;;4992241;28;20048;-86
2021/12/27 03:35:27;;;;;;;25.23;12.80;;;0.40;99.90;;;;;;5011178;28;20087;-85
2021/12/27 03:37:56;;;;;;;20.60;11.35;;;0.40;99.90;;;;;;5022415;28;20053;-86
2021/12/27 03:40:22;;;;;;;20.58;10.98;;;0.40;99.90;;;;;;4995374;28;20045;-85
2021/12/27 03:42:50;;;;;;;24.02;10.40;;;0.50;99.90;;;;;;5004543;28;20107;-86
2021/12/27 03:45:37;;;;;;;22.33;11.70;;;0.50;99.90;;;;;;5013061;23;20393;-68
2021/12/27 03:48:04;;;;;;;25.48;12.32;;;0.50;99.90;;;;;;5026114;28;20041;-68
2021/12/27 03:50:30;;;;;;;23.52;11.60;;;0.50;99.90;;;;;;5010594;28;20478;-68
2021/12/27 03:52:56;;;;;;;20.85;10.07;;;0.50;99.90;;;;;;5022725;28;20038;-68
2021/12/27 03:55:24;;;;;;;21.77;11.93;;;0.50;99.90;;;;;;5026822;28;20489;-68
2021/12/27 03:57:55;;;;;;;22.42;11.02;;;0.50;99.90;;;;;;5004147;28;20684;-68
2021/12/27 04:02:54;;;;;;;25.00;11.50;;;0.50;99.90;;;;;;5007402;28;20057;-69
2021/12/27 04:05:20;;;;;;;24.67;11.63;;;0.50;99.90;;;;;;5005980;28;20077;-68
2021/12/27 04:07:48;;;;;;;21.42;11.32;;;0.50;99.90;;;;;;5002139;28;20037;-68
2021/12/27 04:10:15;;;;;;;24.25;11.70;;;0.50;99.90;;;;;;5022685;28;20100;-68
2021/12/27 04:12:40;;;;;;;22.77;11.40;;;0.50;99.90;;;;;;5012523;28;20094;-68
2021/12/27 04:15:09;;;;;;;26.87;12.70;;;0.50;99.90;;;;;;5026781;28;20116;-69
2021/12/27 04:17:36;;;;;;;29.67;13.48;;;0.50;99.90;;;;;;5005088;28;20042;-66
2021/12/27 04:20:02;;;;;;;24.58;12.77;;;0.50;99.90;;;;;;5025967;28;20395;-66
2021/12/27 04:22:28;;;;;;;25.35;12.13;;;0.60;99.90;;;;;;5023531;28;20037;-67
2021/12/27 04:24:53;;;;;;;25.80;12.50;;;0.50;99.90;;;;;;5025094;28;20501;-67
2021/12/27 04:27:20;;;;;;;26.27;12.33;;;0.50;99.90;;;;;;5023815;28;20067;-67
2021/12/27 04:29:46;;;;;;;24.20;13.60;;;0.50;99.90;;;;;;5000711;28;20517;-68
2021/12/27 04:32:12;;;;;;;25.23;12.52;;;0.50;99.90;;;;;;5007280;28;20033;-67
2021/12/27 04:34:38;;;;;;;25.33;11.57;;;0.50;99.90;;;;;;5009125;28;20217;-68
2021/12/27 04:37:03;;;;;;;25.27;12.57;;;0.50;99.90;;;;;;5021694;28;20083;-67
2021/12/27 04:39:29;;;;;;;23.93;12.60;;;0.50;99.90;;;;;;5015475;28;20045;-67
2021/12/27 04:41:56;;;;;;;29.70;12.95;;;0.50;99.90;;;;;;5010220;28;20108;-67
2021/12/27 04:44:21;;;;;;;26.27;12.93;;;0.50;99.90;;;;;;5022004;28;20047;-68
2021/12/27 04:46:47;;;;;;;24.17;12.10;;;0.40;99.90;;;;;;5022935;28;20045;-67
2021/12/27 04:49:15;;;;;;;24.88;12.70;;;0.50;99.90;;;;;;5014263;28;20213;-67
2021/12/27 04:51:43;;;;;;;27.02;12.43;;;0.50;99.90;;;;;;5006525;28;20132;-67
2021/12/27 04:54:09;;;;;;;25.20;11.73;;;0.50;99.90;;;;;;5015908;28;20091;-67
2021/12/27 04:56:34;;;;;;;25.23;12.63;;;0.50;99.90;;;;;;5020898;28;20486;-67
2021/12/27 04:59:00;;;;;;;23.30;13.43;;;0.50;99.90;;;;;;5024075;28;20060;-68
2021/12/27 05:01:26;;;;;;;25.97;13.13;;;0.50;99.90;;;;;;5024610;28;20151;-67
2021/12/27 05:03:51;;;;;;;23.40;12.87;;;0.50;99.90;;;;;;5023128;28;20076;-67
2021/12/27 05:06:17;;;;;;;27.23;12.63;;;0.50;99.90;;;;;;5018392;28;20038;-67
2021/12/27 05:08:43;;;;;;;25.83;13.53;;;0.50;99.90;;;;;;5015973;28;20197;-67
2021/12/27 05:11:09;;;;;;;25.70;12.00;;;0.50;99.90;;;;;;5023188;28;20037;-67
2021/12/27 05:13:36;;;;;;;31.45;14.15;;;0.50;99.90;;;;;;5022514;28;20063;-67
2021/12/27 05:16:02;;;;;;;;;;;0.50;99.90;;;;;;5022171;28;20073;-67
2021/12/27 05:18:28;;;;;;;27.98;12.38;;;0.50;99.90;;;;;;5022452;28;19972;-67
2021/12/27 05:20:54;;;;;;;30.47;13.43;;;0.50;99.90;;;;;;5025322;28;20410;-67
2021/12/27 05:23:19;;;;;;;23.60;11.83;;;0.50;99.90;;;;;;5001201;28;20506;-67
2021/12/27 05:25:45;;;;;;;26.10;13.30;;;0.50;99.90;;;;;;5021630;28;20124;-67
2021/12/27 05:28:11;;;;;;;26.50;13.40;;;0.50;99.90;;;;;;5020897;28;20125;-66
2021/12/27 05:30:38;;;;;;;29.50;14.27;;;0.50;99.90;;;;;;5024294;28;20041;-67
2021/12/27 05:33:03;;;;;;;26.02;13.18;;;0.50;99.90;;;;;;5020087;28;20091;-66
2021/12/27 05:35:29;;;;;;;28.57;14.00;;;0.50;99.90;;;;;;5002863;28;20042;-65
2021/12/27 05:37:55;;;;;;;25.17;13.13;;;0.50;99.90;;;;;;5020243;28;20048;-66
2021/12/27 05:40:22;;;;;;;27.45;13.70;;;0.50;99.90;;;;;;5013401;28;20040;-66
2021/12/27 05:42:50;;;;;;;25.83;12.10;;;0.50;99.90;;;;;;5022334;28;20037;-66
2021/12/27 05:45:17;;;;;;;27.92;13.55;;;0.50;99.90;;;;;;5019856;28;20041;-66
2021/12/27 05:47:43;;;;;;;28.23;12.85;;;0.60;99.90;;;;;;5014873;28;20049;-66
2021/12/27 05:50:13;;;;;;;27.65;12.07;;;0.60;99.90;;;;;;5022864;28;20040;-66
2021/12/27 05:52:39;;;;;;;28.33;12.63;;;0.60;99.90;;;;;;5021045;28;20038;-66
2021/12/27 05:55:05;;;;;;;27.47;13.97;;;0.60;99.90;;;;;;5005719;28;20096;-66
2021/12/27 05:57:31;;;;;;;27.50;12.80;;;0.60;99.90;;;;;;5002494;28;20312;-66
2021/12/27 05:59:57;;;;;;;26.43;13.07;;;0.60;99.90;;;;;;5026812;28;20306;-66
2021/12/27 06:02:23;;;;;;;28.05;13.15;;;0.60;99.90;;;;;;5025107;28;20041;-66
2021/12/27 06:04:49;;;;;;;27.80;14.40;;;0.60;99.90;;;;;;5020145;28;20257;-66
2021/12/27 06:07:15;;;;;;;30.13;14.20;;;0.60;99.90;;;;;;5018879;28;20060;-66
2021/12/27 06:09:41;;;;;;;26.15;13.15;;;0.60;99.90;;;;;;5008084;28;20123;-66
2021/12/27 06:12:07;;;;;;;29.30;13.87;;;0.60;99.90;;;;;;4993682;28;20810;-66
2021/12/27 06:14:32;;;;;;;30.50;13.43;;;0.60;99.90;;;;;;5035098;28;20120;-66
2021/12/27 06:16:58;;;;;;;29.60;14.57;;;0.60;99.90;;;;;;5008140;28;20124;-66
2021/12/27 06:19:24;;;;;;;28.27;12.53;;;0.60;99.90;;;;;;5031103;28;20392;-66
2021/12/27 06:21:50;;;;;;;36.23;14.07;;;0.60;99.90;;;;;;5029510;28;20041;-66
2021/12/27 06:24:15;;;;;;;28.70;12.53;;;0.70;99.90;;;;;;5008226;28;20038;-69
2021/12/27 06:26:41;;;;;;;30.33;14.23;;;0.60;99.90;;;;;;5013582;28;20053;-65
2021/12/27 06:29:07;;;;;;;31.67;13.63;;;0.70;99.90;;;;;;5012888;28;20083;-65
2021/12/27 06:31:32;;;;;;;33.20;13.83;;;0.70;99.90;;;;;;5031415;28;20033;-65
2021/12/27 06:33:58;;;;;;;35.87;13.40;;;0.70;99.90;;;;;;5030259;28;20033;-66
2021/12/27 06:36:24;;;;;;;33.77;13.80;;;0.70;99.90;;;;;;5012947;28;20037;-66
2021/12/27 06:38:50;;;;;;;31.45;15.45;;;0.60;99.90;;;;;;5030373;28;20460;-66
2021/12/27 06:41:16;;;;;;;36.70;13.60;;;0.70;99.90;;;;;;5030690;28;20041;-65
2021/12/27 06:43:42;;;;;;;31.43;14.30;;;0.70;99.90;;;;;;5030652;28;20398;-66
2021/12/27 06:46:08;;;;;;;31.05;14.85;;;0.70;99.90;;;;;;5029550;28;20547;-65
2021/12/27 06:48:34;;;;;;;32.90;13.50;;;0.70;99.90;;;;;;4996509;28;20110;-65
2021/12/27 06:51:00;;;;;;;31.23;13.70;;;0.70;99.90;;;;;;5013437;28;20045;-65
2021/12/27 06:53:30;;;;;;;27.80;13.33;;;0.70;99.90;;;;;;5029880;28;20040;-65
2021/12/27 06:55:59;;;;;;;40.47;14.23;;;0.70;99.90;;;;;;5011610;28;20379;-65
2021/12/27 06:58:25;;;;;;;30.98;14.77;;;0.70;99.90;;;;;;5029840;28;20501;-64
2021/12/27 07:00:51;;;;;;;35.07;13.63;;;0.70;99.90;;;;;;5030679;28;20134;-65
2021/12/27 07:03:17;;;;;;;35.10;14.77;;;0.70;99.90;;;;;;5029295;28;20033;-66
2021/12/27 07:05:43;;;;;;;29.75;14.63;;;0.70;99.90;;;;;;5029286;28;20716;-65
2021/12/27 07:08:09;;;;;;;34.78;14.38;;;0.70;99.90;;;;;;5012194;28;20041;-65
2021/12/27 07:10:35;;;;;;;30.35;14.38;;;0.80;99.90;;;;;;5030326;28;20064;-65
2021/12/27 07:13:03;;;;;;;37.27;15.53;;;0.70;99.90;;;;;;4995763;28;20728;-66
2021/12/27 07:15:30;;;;;;;36.00;14.32;;;0.70;99.90;;;;;;5009968;28;20283;-65
2021/12/27 07:17:56;;;;;;;34.50;14.25;;;0.70;99.90;;;;;;5029998;28;20041;-65
2021/12/27 07:20:21;;;;;;;40.28;15.13;;;0.80;99.90;;;;;;5030242;28;20044;-65
2021/12/27 07:22:47;;;;;;;37.00;15.57;;;0.70;99.90;;;;;;5028710;28;20049;-65
2021/12/27 07:25:12;;;;;;;34.67;14.70;;;0.80;99.90;;;;;;5010592;28;20507;-65
2021/12/27 07:27:38;;;;;;;36.30;14.27;;;0.70;99.90;;;;;;5010890;28;20046;-65
2021/12/27 07:30:06;;;;;;;40.40;14.97;;;0.80;99.90;;;;;;5026320;28;20482;-65
2021/12/27 07:32:32;;;;;;;36.45;14.90;;;0.80;99.90;;;;;;5029818;28;20041;-65
2021/12/27 07:34:57;;;;;;;36.27;15.37;;;0.80;99.90;;;;;;5029337;28;20022;-65
2021/12/27 07:37:23;;;;;;;38.03;16.97;;;0.80;99.90;;;;;;5011128;28;20041;-66
2021/12/27 07:39:49;;;;;;;35.67;14.97;;;0.80;99.90;;;;;;5029308;28;20037;-66
2021/12/27 07:42:15;;;;;;;39.20;16.23;;;0.90;99.90;;;;;;5029954;28;20164;-66
2021/12/27 07:44:40;;;;;;;40.07;15.37;;;0.80;99.90;;;;;;5017293;28;20041;-64
2021/12/27 07:47:06;;;;;;;39.57;15.13;;;0.90;99.90;;;;;;5011248;28;20081;-66
2021/12/27 07:49:32;;;;;;;35.73;15.83;;;0.80;99.90;;;;;;5029422;28;20025;-65
2021/12/27 07:51:57;;;;;;;41.47;14.60;;;0.90;99.90;;;;;;5028348;28;20025;-65
2021/12/27 07:54:23;;;;;;;42.40;13.77;;;0.90;99.90;;;;;;5029731;28;20124;-65
2021/12/27 07:56:49;;;;;;;43.97;15.60;;;0.90;99.90;;;;;;5031216;28;20033;-65
2021/12/27 07:59:14;;;;;;;43.30;15.53;;;0.90;99.90;;;;;;5011083;28;20037;-65
2021/12/27 08:01:40;;;;;;;53.27;17.07;;;0.90;99.90;;;;;;4995838;28;20045;-66
2021/12/27 08:04:08;;;;;;;47.13;16.05;;;0.90;99.90;;;;;;5011273;28;20465;-66
2021/12/27 08:06:34;;;;;;;46.80;16.83;;;0.90;99.90;;;;;;5028856;28;20146;-66
2021/12/27 08:09:00;;;;;;;50.50;17.67;;;0.90;99.90;;;;;;5027340;28;20191;-66
2021/12/27 08:11:26;;;;;;;47.63;16.43;;;1.00;99.90;;;;;;5006067;28;20045;-67
2021/12/27 08:13:52;;;;;;;;;;;1.00;99.90;;;;;;5009140;28;20068;-67
2021/12/27 08:16:23;;;;;;;49.63;17.02;;;1.00;99.90;;;;;;5025721;28;19920;-67
2021/12/27 08:18:50;;;;;;;41.67;16.58;;;1.00;99.90;;;;;;5007486;28;20296;-67
2021/12/27 08:21:16;;;;;;;51.97;16.95;;;1.00;99.90;;;;;;5012978;28;20402;-67
2021/12/27 08:23:42;;;;;;;45.10;15.70;;;1.00;99.90;;;;;;5010229;28;20637;-67
2021/12/27 08:26:07;;;;;;;48.27;15.83;;;1.00;99.90;;;;;;5028334;28;20036;-67
2021/12/27 08:28:33;;;;;;;45.97;16.17;;;1.10;99.90;;;;;;5021936;28;20042;-67
2021/12/27 08:30:59;;;;;;;54.20;17.33;;;1.10;99.90;;;;;;5029613;28;20025;-67
2021/12/27 08:33:24;;;;;;;56.63;17.13;;;1.10;99.90;;;;;;5009220;28;20045;-67
2021/12/27 08:35:50;;;;;;;51.00;17.70;;;1.10;99.90;;;;;;5030167;28;20091;-68
2021/12/27 08:38:18;;;;;;;46.13;17.00;;;1.10;99.90;;;;;;5005306;28;20478;-67
2021/12/27 08:40:45;;;;;;;42.22;16.40;;;1.10;99.90;;;;;;5005906;28;20048;-68
2021/12/27 08:43:11;;;;;;;55.85;18.20;;;1.10;99.90;;;;;;5005476;28;20490;-67
2021/12/27 08:45:37;;;;;;;49.75;17.10;;;1.10;99.90;;;;;;5012982;28;20048;-68
2021/12/27 08:48:03;;;;;;;49.97;16.90;;;1.20;99.90;;;;;;5003734;28;20402;-67
2021/12/27 08:50:28;;;;;;;49.67;16.37;;;1.20;99.90;;;;;;5007592;28;20288;-67
2021/12/27 08:52:55;;;;;;;48.83;16.10;;;1.20;99.90;;;;;;5025598;28;20517;-67
2021/12/27 08:55:20;;;;;;;;;;;1.20;99.90;;;;;;5014663;28;20041;-67
2021/12/27 08:57:46;;;;;;;58.53;17.10;;;1.20;99.90;;;;;;5017617;28;19917;-67
2021/12/27 09:00:16;;;;;;;44.03;17.07;;;1.30;99.90;;;;;;5026872;28;20033;-71
2021/12/27 09:02:43;;;;;;;53.13;18.27;;;1.30;99.90;;;;;;5008658;28;20547;-66
2021/12/27 09:05:08;;;;;;;57.70;18.50;;;1.30;99.90;;;;;;5002120;28;20140;-69
2021/12/27 09:07:34;;;;;;;53.27;18.13;;;1.30;99.90;;;;;;4999873;28;20128;-69
2021/12/27 09:10:00;;;;;;;50.17;17.37;;;1.20;99.90;;;;;;5021770;28;20486;-69
2021/12/27 09:12:26;;;;;;;51.57;18.10;;;1.30;99.90;;;;;;5007711;28;20069;-69
2021/12/27 09:14:51;;;;;;;52.43;17.77;;;1.30;99.90;;;;;;5003230;28;20341;-71
2021/12/27 09:17:18;;;;;;;49.47;16.67;;;1.30;99.90;;;;;;5003580;28;20034;-71
2021/12/27 09:19:43;;;;;;;56.78;17.75;;;1.30;99.90;;;;;;5008520;28;20071;-71
2021/12/27 09:22:10;;;;;;;51.37;15.67;;;1.40;99.90;;;;;;5024380;28;20121;-72
2021/12/27 09:24:36;;;;;;;;;;;1.40;99.90;;;;;;5005695;28;20049;-71
2021/12/27 09:27:06;;;;;;;39.58;14.13;;;1.40;99.90;;;;;;5023828;22;19932;-81
2021/12/27 09:29:51;;;;;;;40.28;13.95;;;1.40;99.90;;;;;;4976727;28;20081;-84
2021/12/27 09:32:56;;;;;;;;;;;;;;;;;;;;;
2021/12/27 09:35:34;;;;;;;34.83;13.90;;;1.40;99.90;;;;;;4974346;28;20136;-84
2021/12/27 09:38:17;;;;;;;45.00;15.50;;;1.40;99.90;;;;;;4992585;28;20034;-83
2021/12/27 09:40:54;;;;;;;40.75;15.25;;;1.40;99.90;;;;;;4995867;28;20200;-84
2021/12/27 09:43:24;;;;;;;38.03;14.60;;;1.40;99.90;;;;;;5004088;28;20042;-84
2021/12/27 09:46:13;;;;;;;39.63;13.55;;;1.50;99.90;;;;;;4975230;28;20109;-84
2021/12/27 09:48:40;;;;;;;39.78;14.10;;;1.50;99.90;;;;;;4996760;28;20495;-83
2021/12/27 09:51:59;;;;;;;;;;;;;;;;;;;;;
2021/12/27 09:54:20;;;;;;;35.90;13.52;;;1.50;99.90;;;;;;4993931;28;20035;-83
2021/12/27 09:57:33;;;;;;;;;;;;;;;;;;;;;
2021/12/27 10:00:12;;;;;;;38.58;13.60;;;1.50;99.90;;;;;;4997419;28;20034;-84
2021/12/27 10:03:20;;;;;;;35.30;15.52;;;1.50;99.90;;;;;;5002257;28;20040;-84
2021/12/27 10:05:47;;;;;;;38.13;15.65;;;1.60;99.90;;;;;;4955543;28;20042;-83
2021/12/27 10:08:22;;;;;;;46.72;15.88;;;1.60;99.90;;;;;;5005571;28;20021;-84
2021/12/27 10:14:34;;;;;;;36.07;13.13;;;1.60;99.90;;;;;;5003371;28;20044;-84
2021/12/27 10:17:25;;;;;;;43.15;15.57;;;1.60;99.90;;;;;;5001518;28;20038;-84
2021/12/27 10:19:53;;;;;;;40.13;13.88;;;1.70;99.90;;;;;;4997345;28;20045;-84
2021/12/27 10:22:44;;;;;;;51.80;13.90;;;1.70;99.90;;;;;;4987105;28;20058;-85
2021/12/27 10:25:37;;;;;;;43.83;15.52;;;1.70;99.90;;;;;;5001000;28;20038;-85
2021/12/27 10:28:03;;;;;;;53.63;16.90;;;1.70;99.90;;;;;;4995542;28;20042;-84
2021/12/27 10:33:24;;;;;;;39.75;13.98;;;1.70;99.90;;;;;;4997260;28;19980;-84
2021/12/27 10:38:59;;;;;;;52.25;14.45;;;1.80;99.90;;;;;;5000207;28;20041;-84
2021/12/27 10:44:38;;;;;;;42.75;14.60;;;1.80;99.90;;;;;;4999258;28;20098;-84
2021/12/27 10:47:39;;;;;;;55.75;16.23;;;1.80;99.90;;;;;;4987988;28;20300;-84
2021/12/27 10:50:17;;;;;;;;;;;1.90;99.90;;;;;;4997607;28;20092;-83
2021/12/27 10:56:15;;;;;;;;;;;1.90;99.90;;;;;;4985686;28;20038;-84
2021/12/27 10:58:49;;;;;;;;;;;2.00;99.90;;;;;;4977844;28;19961;-83
2021/12/27 11:01:19;;;;;;;43.63;14.25;;;2.00;99.90;;;;;;4982197;28;19925;-84
2021/12/27 11:04:33;;;;;;;42.95;15.23;;;2.10;99.90;;;;;;4981673;28;20045;-88
2021/12/27 11:07:00;;;;;;;48.65;15.35;;;2.20;99.90;;;;;;4994167;23;20129;-69
2021/12/27 11:09:26;;;;;;;50.05;15.90;;;2.20;99.90;;;;;;5020393;28;20049;-69
2021/12/27 11:11:51;;;;;;;53.33;15.50;;;2.30;99.90;;;;;;5045894;28;20033;-70
2021/12/27 11:14:17;;;;;;;46.20;14.93;;;2.30;99.90;;;;;;5027413;28;20405;-70
2021/12/27 11:16:43;;;;;;;51.50;18.53;;;2.30;99.90;;;;;;5022740;28;20121;-70
2021/12/27 11:19:08;;;;;;;51.37;16.97;;;2.40;99.90;;;;;;5019270;28;20063;-70
2021/12/27 11:21:42;;;;;;;51.77;16.93;;;2.40;99.90;;;;;;5004527;28;20041;-70
2021/12/27 11:24:08;;;;;;;61.40;18.13;;;2.40;99.90;;;;;;5022111;28;20485;-70
2021/12/27 11:26:40;;;;;;;48.17;16.05;;;2.40;99.90;;;;;;5008309;28;20303;-70
2021/12/27 11:29:19;;;;;;;52.28;19.15;;;2.40;99.90;;;;;;5010617;28;20068;-70
2021/12/27 11:31:48;;;;;;;56.58;16.92;;;2.40;99.90;;;;;;5021356;28;20084;-70
2021/12/27 11:34:19;;;;;;;54.97;16.83;;;2.50;99.90;;;;;;5006569;28;20090;-70
2021/12/27 11:36:56;;;;;;;51.97;16.40;;;2.50;99.90;;;;;;5004904;28;20095;-70
2021/12/27 11:39:25;;;;;;;49.75;17.58;;;2.60;99.90;;;;;;5022418;28;20029;-70
2021/12/27 11:42:02;;;;;;;52.90;18.77;;;2.60;99.90;;;;;;4987528;28;20141;-70
2021/12/27 11:44:33;;;;;;;52.83;17.00;;;2.60;99.90;;;;;;5019763;28;20041;-70
2021/12/27 11:46:59;;;;;;;46.35;14.75;;;2.60;99.90;;;;;;5022896;28;20098;-70
2021/12/27 11:49:59;;;;;;;51.60;16.92;;;2.60;99.90;;;;;;5016603;28;20037;-70
2021/12/27 11:52:29;;;;;;;48.80;15.63;;;2.60;99.90;;;;;;5022232;28;20458;-70
2021/12/27 11:55:05;;;;;;;58.85;15.80;;;2.60;99.90;;;;;;5015435;28;20049;-70
2021/12/27 11:57:56;;;;;;;48.65;15.02;;;2.70;99.90;;;;;;5006008;28;20099;-70
2021/12/27 12:00:21;;;;;;;50.22;16.45;;;2.70;99.90;;;;;;5018152;28;20029;-70
2021/12/27 12:02:51;;;;;;;47.03;16.33;;;2.70;99.90;;;;;;4997733;28;20146;-70
2021/12/27 12:05:36;;;;;;;52.33;15.13;;;2.80;99.90;;;;;;5008178;28;20045;-70
2021/12/27 12:08:03;;;;;;;58.22;16.40;;;2.80;99.90;;;;;;5012984;28;20375;-70
2021/12/27 12:10:31;;;;;;;51.03;14.98;;;2.80;99.90;;;;;;4989475;28;20445;-70
2021/12/27 12:13:39;;;;;;;50.45;15.90;;;2.80;99.90;;;;;;4988954;28;20227;-70
2021/12/27 12:16:20;;;;;;;55.65;15.60;;;2.80;99.90;;;;;;4996913;28;20053;-70
2021/12/27 12:19:10;;;;;;;48.35;17.00;;;2.80;99.90;;;;;;5004247;28;20041;-70
2021/12/27 12:21:38;;;;;;;50.20;16.45;;;2.80;99.90;;;;;;5007122;28;20056;-70
2021/12/27 12:24:12;;;;;;;51.40;15.27;;;2.80;99.90;;;;;;5005566;28;20045;-70
2021/12/27 12:26:50;;;;;;;51.83;15.73;;;2.80;99.90;;;;;;4992327;28;20437;-70
2021/12/27 12:29:16;;;;;;;51.28;15.15;;;2.80;99.90;;;;;;4992282;28;20045;-70
2021/12/27 12:31:42;;;;;;;54.77;15.90;;;2.80;99.90;;;;;;4999640;28;20522;-69
2021/12/27 12:34:21;;;;;;;52.77;16.30;;;2.80;99.90;;;;;;5018235;28;20471;-69
2021/12/27 12:36:52;;;;;;;62.25;16.55;;;2.90;99.90;;;;;;5014868;28;20041;-70
2021/12/27 12:39:19;;;;;;;55.88;16.55;;;2.90;99.90;;;;;;5000857;28;20163;-70
2021/12/27 12:41:46;;;;;;;53.70;17.20;;;2.90;99.90;;;;;;5022588;28;20049;-69
2021/12/27 12:44:12;;;;;;;66.40;18.27;;;3.00;99.90;;;;;;5023732;28;20057;-70
2021/12/27 12:46:41;;;;;;;67.97;18.05;;;3.00;99.90;;;;;;5023286;28;20514;-70
2021/12/27 12:49:22;;;;;;;55.20;17.35;;;3.00;99.90;;;;;;5004333;28;20037;-69
2021/12/27 12:52:01;;;;;;;64.65;17.25;;;3.10;99.90;;;;;;5010833;28;20045;-69
2021/12/27 12:54:34;;;;;;;44.83;15.75;;;3.10;99.90;;;;;;5021933;28;20068;-70
2021/12/27 12:57:07;;;;;;;60.53;18.77;;;3.10;99.90;;;;;;5006318;28;20566;-69
2021/12/27 12:59:47;;;;;;;48.20;17.02;;;3.10;99.90;;;;;;5000127;28;20037;-69
2021/12/27 13:02:32;;;;;;;58.13;17.00;;;3.10;99.90;;;;;;5009859;28;20549;-69
2021/12/27 13:04:59;;;;;;;67.78;18.77;;;3.10;99.90;;;;;;5009768;28;20437;-69
2021/12/27 13:07:46;;;;;;;;;;;3.20;99.90;;;;;;4993896;28;20125;-69
2021/12/27 13:10:24;;;;;;;59.55;16.35;;;3.20;99.90;;;;;;4988471;28;19921;-69
2021/12/27 13:12:58;;;;;;;64.78;18.15;;;3.20;99.90;;;;;;5020276;28;20049;-70
2021/12/27 13:15:30;;;;;;;78.03;17.48;;;3.20;99.90;;;;;;5000643;28;20486;-70
2021/12/27 13:18:07;;;;;;;62.80;17.33;;;3.20;99.90;;;;;;5022353;28;20049;-70
2021/12/27 13:20:36;;;;;;;68.75;17.17;;;3.20;99.90;;;;;;5014136;28;20721;-69